• Join FlightAware (Why Join?)
  • Login
  • US Flag 
09:51AM EDT


 

Airport Tracker/Info


-or-


 

Live Flight TrackerFlight Track Log ✈ N353LA ✈ 03-May-2012 ✈ KEAT - KPSC

Flight Track Log - Related Links

Times and Time Zones

All times are in EDT time to prevent confusion due to time zone crossing. See the N353LA flight status page for this flight to view local times or setup timezone preferences in your user account.

Time Position Orientation Groundspeed Altitude Reporting Facility
EDT Latitude Longitude Course Direction KTS MPH feet Rate Location/Type
08:33PM 47.3529 -120.1619 134° Southeast  Level FlightAware Approximate
08:34PM 47.2950 -120.0725 148° Southeast 164 189 3,500  Level Seattle Center
08:35PM 47.2558 -120.0358 154° Southeast 165 190 3,600 360 Climbing Seattle Center
08:36PM 47.2175 -120.0081 152° Southeast 154 177 4,300 720 Climbing Seattle Center
08:37PM 47.1819 -119.9806 152° Southeast 143 165 5,100 780 Climbing Seattle Center
08:38PM 47.1472 -119.9531 151° Southeast 141 162 5,900 780 Climbing Seattle Center
08:39PM 47.1144 -119.9258 150° Southeast 138 159 6,700 600 Climbing Seattle Center
08:40PM 47.0814 -119.8975 153° Southeast 138 159 7,200 180 Climbing Seattle Center
08:41PM 47.0403 -119.8667 151° Southeast 160 184 7,100 -60 Descending Seattle Center
08:42PM 46.9978 -119.8325 144° Southeast 172 198 7,100  Level Seattle Center
08:43PM 46.9578 -119.7900 144° Southeast 177 204 7,100  Level Seattle Center
08:44PM 46.9186 -119.7489 146° Southeast 175 201 7,100  Level Seattle Center
08:45PM 46.8772 -119.7081 147° Southeast 178 205 7,100 -120 Level Seattle Center
08:46PM 46.8286 -119.6611 146° Southeast 176 203 6,900 -600 Descending Seattle Center
08:47PM 46.7831 -119.6167 146° Southeast 195 224 5,900 -540 Descending Seattle Center
08:48PM 46.7419 -119.5756 147° Southeast 174 200 5,800 -300 Descending Seattle Center
08:49PM 46.7064 -119.5417 148° Southeast 159 183 5,300 -420 Descending Seattle Center
08:50PM 46.6706 -119.5086 147° Southeast 154 177 5,000 -180 Descending Seattle Center
08:51PM 46.6319 -119.4722 147° Southeast 161 185 5,000  Level Seattle Center
08:52PM 46.5931 -119.4353 145° Southeast 166 191 5,000  Level Seattle Center
08:53PM 46.5547 -119.3967 146° Southeast 167 192 5,000  Level Seattle Center
08:54PM 46.5161 -119.3586 147° Southeast 169 194 5,000  Level Seattle Center
08:55PM 46.4783 -119.3231 137° Southeast 165 190 5,000 -60 Level Seattle Center
08:56PM 46.4389 -119.2703 132° Southeast 163 188 4,900 -120 Descending Seattle Center
08:57PM 46.4114 -119.2261 132° Southeast 148 170 4,800 -600 Descending Seattle Center
08:58PM 46.3844 -119.1822 141° Southeast 146 168 3,700 -1,200 Descending Seattle Center
08:59PM 46.3544 -119.1467 142° Southeast 142 163 2,400 -780 Descending Seattle Center
09:00PM 46.3239 -119.1125 142° Southeast 142 163 2,200 -240 Descending Seattle Center